sensor_id;sensor_type;location;lat;lon;timestamp;pressure;altitude;pressure_sealevel;temperature;humidity
32197;BME280;18697;42.770;23.400;2023-04-24T00:01:26;95392.44;;;12.61;57.47
32197;BME280;18697;42.770;23.400;2023-04-24T00:03:51;95395.63;;;12.54;58.16
32197;BME280;18697;42.770;23.400;2023-04-24T00:06:17;95392.75;;;12.33;58.44
32197;BME280;18697;42.770;23.400;2023-04-24T00:08:42;95384.50;;;12.09;59.14
32197;BME280;18697;42.770;23.400;2023-04-24T00:11:08;95377.66;;;11.96;59.70
32197;BME280;18697;42.770;23.400;2023-04-24T00:13:34;95373.84;;;11.93;60.63
32197;BME280;18697;42.770;23.400;2023-04-24T00:16:00;95368.75;;;12.06;63.67
32197;BME280;18697;42.770;23.400;2023-04-24T00:18:25;95363.50;;;13.28;62.08
32197;BME280;18697;42.770;23.400;2023-04-24T00:20:50;95351.53;;;13.94;60.12
32197;BME280;18697;42.770;23.400;2023-04-24T00:23:16;95359.25;;;14.36;56.89
32197;BME280;18697;42.770;23.400;2023-04-24T00:25:41;95345.81;;;14.72;55.00
32197;BME280;18697;42.770;23.400;2023-04-24T00:28:06;95341.25;;;15.23;55.52
32197;BME280;18697;42.770;23.400;2023-04-24T00:30:32;95347.81;;;15.68;54.51
32197;BME280;18697;42.770;23.400;2023-04-24T00:32:57;95341.78;;;15.97;51.48
32197;BME280;18697;42.770;23.400;2023-04-24T00:35:23;95342.06;;;16.10;53.79
32197;BME280;18697;42.770;23.400;2023-04-24T00:37:48;95353.25;;;16.50;53.10
32197;BME280;18697;42.770;23.400;2023-04-24T00:40:14;95353.00;;;16.87;51.29
32197;BME280;18697;42.770;23.400;2023-04-24T00:42:40;95356.56;;;16.93;49.56
32197;BME280;18697;42.770;23.400;2023-04-24T00:45:06;95356.31;;;16.91;50.05
32197;BME280;18697;42.770;23.400;2023-04-24T00:47:33;95351.22;;;16.84;51.30
32197;BME280;18697;42.770;23.400;2023-04-24T00:50:02;95363.41;;;17.08;51.68
32197;BME280;18697;42.770;23.400;2023-04-24T00:52:27;95352.38;;;17.27;50.77
32197;BME280;18697;42.770;23.400;2023-04-24T00:54:53;95355.31;;;16.66;48.03
32197;BME280;18697;42.770;23.400;2023-04-24T00:57:19;95355.28;;;16.60;53.09
32197;BME280;18697;42.770;23.400;2023-04-24T00:59:45;95346.88;;;16.55;51.83
32197;BME280;18697;42.770;23.400;2023-04-24T01:02:11;95349.19;;;16.28;51.66
32197;BME280;18697;42.770;23.400;2023-04-24T01:04:37;95347.41;;;16.20;53.95
32197;BME280;18697;42.770;23.400;2023-04-24T01:07:03;95347.13;;;16.34;52.88
32197;BME280;18697;42.770;23.400;2023-04-24T01:09:35;95344.84;;;15.99;52.60
32197;BME280;18697;42.770;23.400;2023-04-24T01:12:01;95341.28;;;16.60;52.70
32197;BME280;18697;42.770;23.400;2023-04-24T01:14:26;95346.13;;;16.93;52.25
32197;BME280;18697;42.770;23.400;2023-04-24T01:16:52;95345.34;;;17.04;52.18
32197;BME280;18697;42.770;23.400;2023-04-24T01:19:18;95340.53;;;16.88;50.25
32197;BME280;18697;42.770;23.400;2023-04-24T01:21:46;95342.56;;;16.70;51.21
32197;BME280;18697;42.770;23.400;2023-04-24T01:24:12;95340.00;;;16.56;50.80
32197;BME280;18697;42.770;23.400;2023-04-24T01:26:38;95333.88;;;16.96;52.05
32197;BME280;18697;42.770;23.400;2023-04-24T01:29:03;95338.28;;;17.44;51.45
32197;BME280;18697;42.770;23.400;2023-04-24T01:31:29;95339.50;;;17.71;50.18
32197;BME280;18697;42.770;23.400;2023-04-24T01:33:56;95342.91;;;17.94;50.36
32197;BME280;18697;42.770;23.400;2023-04-24T01:36:22;95324.91;;;18.14;49.49
32197;BME280;18697;42.770;23.400;2023-04-24T01:38:48;95331.25;;;18.20;49.28
32197;BME280;18697;42.770;23.400;2023-04-24T01:41:14;95322.13;;;18.08;49.17
32197;BME280;18697;42.770;23.400;2023-04-24T01:43:39;95330.00;;;18.15;48.90
32197;BME280;18697;42.770;23.400;2023-04-24T01:46:06;95318.59;;;18.37;48.93
32197;BME280;18697;42.770;23.400;2023-04-24T01:48:31;95316.72;;;18.51;47.55
32197;BME280;18697;42.770;23.400;2023-04-24T01:50:57;95320.44;;;18.59;47.78
32197;BME280;18697;42.770;23.400;2023-04-24T01:53:22;95317.31;;;18.68;47.60
32197;BME280;18697;42.770;23.400;2023-04-24T01:55:48;95308.59;;;18.72;47.32
32197;BME280;18697;42.770;23.400;2023-04-24T01:58:13;95310.28;;;18.56;46.56
32197;BME280;18697;42.770;23.400;2023-04-24T02:00:39;95307.47;;;18.56;46.32
32197;BME280;18697;42.770;23.400;2023-04-24T02:03:04;95308.84;;;18.44;47.27
32197;BME280;18697;42.770;23.400;2023-04-24T02:05:30;95298.34;;;18.15;47.49
32197;BME280;18697;42.770;23.400;2023-04-24T02:07:55;95302.34;;;18.25;48.41
32197;BME280;18697;42.770;23.400;2023-04-24T02:10:20;95303.44;;;18.16;48.52
32197;BME280;18697;42.770;23.400;2023-04-24T02:12:46;95306.19;;;17.86;48.29
32197;BME280;18697;42.770;23.400;2023-04-24T02:15:11;95301.69;;;17.72;49.84
32197;BME280;18697;42.770;23.400;2023-04-24T02:17:37;95296.06;;;17.72;49.12
32197;BME280;18697;42.770;23.400;2023-04-24T02:20:05;95298.69;;;18.00;48.70
32197;BME280;18697;42.770;23.400;2023-04-24T02:22:30;95296.44;;;17.93;48.86
32197;BME280;18697;42.770;23.400;2023-04-24T02:24:55;95301.25;;;17.98;47.20
32197;BME280;18697;42.770;23.400;2023-04-24T02:27:21;95294.03;;;18.08;49.15
32197;BME280;18697;42.770;23.400;2023-04-24T02:29:46;95281.91;;;18.24;48.05
32197;BME280;18697;42.770;23.400;2023-04-24T02:32:11;95285.34;;;18.42;47.90
32197;BME280;18697;42.770;23.400;2023-04-24T02:34:37;95283.59;;;18.38;47.66
32197;BME280;18697;42.770;23.400;2023-04-24T02:37:03;95279.50;;;18.39;47.50
32197;BME280;18697;42.770;23.400;2023-04-24T02:39:29;95281.97;;;18.49;47.95
32197;BME280;18697;42.770;23.400;2023-04-24T02:41:54;95279.09;;;18.54;47.30
32197;BME280;18697;42.770;23.400;2023-04-24T02:44:19;95285.13;;;18.39;47.66
32197;BME280;18697;42.770;23.400;2023-04-24T02:46:45;95276.63;;;18.15;48.12
32197;BME280;18697;42.770;23.400;2023-04-24T02:49:10;95286.66;;;17.06;46.99
32197;BME280;18697;42.770;23.400;2023-04-24T02:51:37;95288.88;;;17.19;51.20
32197;BME280;18697;42.770;23.400;2023-04-24T02:54:05;95281.41;;;17.38;50.66
32197;BME280;18697;42.770;23.400;2023-04-24T02:56:31;95280.50;;;17.71;50.14
32197;BME280;18697;42.770;23.400;2023-04-24T02:58:56;95287.94;;;17.63;50.11
32197;BME280;18697;42.770;23.400;2023-04-24T03:01:21;95285.50;;;17.84;48.75
32197;BME280;18697;42.770;23.400;2023-04-24T03:03:47;95284.34;;;17.62;47.11
32197;BME280;18697;42.770;23.400;2023-04-24T03:06:12;95286.53;;;17.86;49.51
32197;BME280;18697;42.770;23.400;2023-04-24T03:08:37;95291.13;;;17.84;49.36
32197;BME280;18697;42.770;23.400;2023-04-24T03:11:03;95294.06;;;18.02;49.02
32197;BME280;18697;42.770;23.400;2023-04-24T03:13:28;95284.75;;;18.19;48.89
32197;BME280;18697;42.770;23.400;2023-04-24T03:15:54;95289.34;;;18.22;47.34
32197;BME280;18697;42.770;23.400;2023-04-24T03:18:19;95282.16;;;18.26;48.59
32197;BME280;18697;42.770;23.400;2023-04-24T03:20:48;95280.66;;;18.20;48.26
32197;BME280;18697;42.770;23.400;2023-04-24T03:23:13;95283.63;;;18.33;48.51
32197;BME280;18697;42.770;23.400;2023-04-24T03:25:39;95286.53;;;18.52;48.39
32197;BME280;18697;42.770;23.400;2023-04-24T03:28:04;95284.66;;;18.60;48.16
32197;BME280;18697;42.770;23.400;2023-04-24T03:30:31;95293.16;;;18.54;46.55
32197;BME280;18697;42.770;23.400;2023-04-24T03:32:56;95291.06;;;18.60;46.98
32197;BME280;18697;42.770;23.400;2023-04-24T03:35:22;95289.56;;;18.84;47.29
32197;BME280;18697;42.770;23.400;2023-04-24T03:37:47;95293.47;;;19.24;46.21
32197;BME280;18697;42.770;23.400;2023-04-24T03:40:12;95289.06;;;19.28;45.90
32197;BME280;18697;42.770;23.400;2023-04-24T03:42:38;95304.34;;;19.14;45.76
32197;BME280;18697;42.770;23.400;2023-04-24T03:45:04;95304.03;;;18.93;46.67
32197;BME280;18697;42.770;23.400;2023-04-24T03:47:30;95299.75;;;19.11;44.04
32197;BME280;18697;42.770;23.400;2023-04-24T03:49:55;95300.00;;;19.13;45.96
32197;BME280;18697;42.770;23.400;2023-04-24T03:52:21;95295.47;;;19.29;46.45
32197;BME280;18697;42.770;23.400;2023-04-24T03:54:46;95296.97;;;19.54;46.20
32197;BME280;18697;42.770;23.400;2023-04-24T03:57:12;95292.13;;;20.06;45.08
32197;BME280;18697;42.770;23.400;2023-04-24T03:59:37;95300.50;;;20.11;44.10
32197;BME280;18697;42.770;23.400;2023-04-24T04:02:02;95296.59;;;20.01;44.73
32197;BME280;18697;42.770;23.400;2023-04-24T04:04:28;95296.22;;;20.23;44.84
32197;BME280;18697;42.770;23.400;2023-04-24T04:06:53;95300.28;;;20.60;44.17
32197;BME280;18697;42.770;23.400;2023-04-24T04:09:18;95293.06;;;20.78;43.85
32197;BME280;18697;42.770;23.400;2023-04-24T04:11:44;95294.69;;;20.22;43.30
32197;BME280;18697;42.770;23.400;2023-04-24T04:14:09;95290.97;;;20.14;44.42
32197;BME280;18697;42.770;23.400;2023-04-24T04:16:35;95287.84;;;20.18;45.73
32197;BME280;18697;42.770;23.400;2023-04-24T04:19:01;95293.47;;;20.18;46.20
32197;BME280;18697;42.770;23.400;2023-04-24T04:21:28;95302.38;;;20.41;45.72
32197;BME280;18697;42.770;23.400;2023-04-24T04:23:53;95295.19;;;20.58;45.65
32197;BME280;18697;42.770;23.400;2023-04-24T04:26:19;95302.44;;;20.35;44.46
32197;BME280;18697;42.770;23.400;2023-04-24T04:28:46;95311.63;;;20.41;42.47
32197;BME280;18697;42.770;23.400;2023-04-24T04:31:13;95303.22;;;20.35;43.47
32197;BME280;18697;42.770;23.400;2023-04-24T04:33:38;95301.53;;;20.46;44.97
32197;BME280;18697;42.770;23.400;2023-04-24T04:36:04;95299.81;;;20.24;43.94
32197;BME280;18697;42.770;23.400;2023-04-24T04:38:30;95305.66;;;20.26;45.43
32197;BME280;18697;42.770;23.400;2023-04-24T04:40:56;95307.88;;;20.33;43.97
32197;BME280;18697;42.770;23.400;2023-04-24T04:43:23;95310.09;;;20.40;45.60
32197;BME280;18697;42.770;23.400;2023-04-24T04:45:49;95315.72;;;20.21;45.32
32197;BME280;18697;42.770;23.400;2023-04-24T04:48:17;95316.75;;;19.67;48.18
32197;BME280;18697;42.770;23.400;2023-04-24T04:50:42;95318.22;;;19.74;47.71
32197;BME280;18697;42.770;23.400;2023-04-24T04:53:08;95322.63;;;19.69;47.34
32197;BME280;18697;42.770;23.400;2023-04-24T04:55:33;95325.97;;;19.68;47.73
32197;BME280;18697;42.770;23.400;2023-04-24T04:57:59;95320.44;;;19.38;47.15
32197;BME280;18697;42.770;23.400;2023-04-24T05:00:25;95323.09;;;19.30;48.70
32197;BME280;18697;42.770;23.400;2023-04-24T05:02:51;95320.78;;;19.53;49.23
32197;BME280;18697;42.770;23.400;2023-04-24T05:05:16;95317.25;;;19.47;49.20
32197;BME280;18697;42.770;23.400;2023-04-24T05:07:43;95322.56;;;19.51;49.66
32197;BME280;18697;42.770;23.400;2023-04-24T05:10:08;95323.75;;;19.36;49.97
32197;BME280;18697;42.770;23.400;2023-04-24T05:12:34;95327.19;;;19.54;49.68
32197;BME280;18697;42.770;23.400;2023-04-24T05:15:00;95325.06;;;19.60;49.49
32197;BME280;18697;42.770;23.400;2023-04-24T05:17:25;95319.75;;;19.51;49.90
32197;BME280;18697;42.770;23.400;2023-04-24T05:19:51;95324.91;;;19.71;49.38
32197;BME280;18697;42.770;23.400;2023-04-24T05:22:16;95327.72;;;19.71;48.87
32197;BME280;18697;42.770;23.400;2023-04-24T05:24:43;95322.47;;;19.62;49.58
32197;BME280;18697;42.770;23.400;2023-04-24T05:27:09;95319.75;;;19.51;49.42
32197;BME280;18697;42.770;23.400;2023-04-24T05:29:34;95319.66;;;19.62;49.80
32197;BME280;18697;42.770;23.400;2023-04-24T05:32:00;95329.81;;;19.46;49.83
32197;BME280;18697;42.770;23.400;2023-04-24T05:34:26;95326.00;;;19.44;49.87
32197;BME280;18697;42.770;23.400;2023-04-24T05:36:52;95313.56;;;19.58;49.47
32197;BME280;18697;42.770;23.400;2023-04-24T05:39:18;95319.72;;;19.56;48.92
32197;BME280;18697;42.770;23.400;2023-04-24T05:41:44;95329.09;;;19.40;48.40
32197;BME280;18697;42.770;23.400;2023-04-24T05:44:10;95327.88;;;19.35;50.95
32197;BME280;18697;42.770;23.400;2023-04-24T05:46:35;95330.03;;;19.48;50.39
32197;BME280;18697;42.770;23.400;2023-04-24T05:49:01;95316.72;;;19.49;50.46
32197;BME280;18697;42.770;23.400;2023-04-24T05:51:27;95336.66;;;19.75;50.25
32197;BME280;18697;42.770;23.400;2023-04-24T05:53:53;95330.72;;;19.79;49.56
32197;BME280;18697;42.770;23.400;2023-04-24T05:56:18;95331.16;;;19.83;50.12
32197;BME280;18697;42.770;23.400;2023-04-24T05:58:45;95325.84;;;19.79;48.99
32197;BME280;18697;42.770;23.400;2023-04-24T06:01:11;95329.56;;;19.68;49.78
32197;BME280;18697;42.770;23.400;2023-04-24T06:03:40;95317.31;;;19.85;50.17
32197;BME280;18697;42.770;23.400;2023-04-24T06:06:07;95320.50;;;19.76;49.83
32197;BME280;18697;42.770;23.400;2023-04-24T06:08:33;95321.50;;;19.97;49.80
32197;BME280;18697;42.770;23.400;2023-04-24T06:10:58;95329.22;;;20.10;49.26
32197;BME280;18697;42.770;23.400;2023-04-24T06:13:24;95325.88;;;20.11;45.08
32197;BME280;18697;42.770;23.400;2023-04-24T06:15:50;95325.44;;;18.78;44.68
32197;BME280;18697;42.770;23.400;2023-04-24T06:18:15;95317.00;;;19.26;50.39
32197;BME280;18697;42.770;23.400;2023-04-24T06:20:41;95324.28;;;19.16;44.33
32197;BME280;18697;42.770;23.400;2023-04-24T06:23:06;95322.91;;;18.74;46.44
32197;BME280;18697;42.770;23.400;2023-04-24T06:25:32;95324.13;;;18.79;48.69
32197;BME280;18697;42.770;23.400;2023-04-24T06:27:57;95329.41;;;17.87;45.38
32197;BME280;18697;42.770;23.400;2023-04-24T06:30:23;95331.31;;;17.73;48.35
32197;BME280;18697;42.770;23.400;2023-04-24T06:32:48;95329.53;;;17.01;47.86
32197;BME280;18697;42.770;23.400;2023-04-24T06:35:14;95327.53;;;16.06;49.60
32197;BME280;18697;42.770;23.400;2023-04-24T06:37:42;95331.09;;;16.46;53.82
32197;BME280;18697;42.770;23.400;2023-04-24T06:40:09;95328.81;;;16.72;54.45
32197;BME280;18697;42.770;23.400;2023-04-24T06:42:35;95327.25;;;16.55;53.65
32197;BME280;18697;42.770;23.400;2023-04-24T06:45:01;95338.47;;;16.43;52.62
32197;BME280;18697;42.770;23.400;2023-04-24T06:47:27;95334.88;;;15.87;50.08
32197;BME280;18697;42.770;23.400;2023-04-24T06:49:52;95339.75;;;16.09;51.32
32197;BME280;18697;42.770;23.400;2023-04-24T06:52:18;95331.38;;;16.31;51.14
32197;BME280;18697;42.770;23.400;2023-04-24T06:54:44;95328.34;;;15.31;50.54
32197;BME280;18697;42.770;23.400;2023-04-24T06:57:09;95328.13;;;15.45;51.90
32197;BME280;18697;42.770;23.400;2023-04-24T06:59:35;95332.00;;;15.00;51.54
32197;BME280;18697;42.770;23.400;2023-04-24T07:02:01;95332.34;;;14.70;52.71
32197;BME280;18697;42.770;23.400;2023-04-24T07:04:26;95323.81;;;14.48;53.54
32197;BME280;18697;42.770;23.400;2023-04-24T07:06:52;95329.47;;;14.59;55.02
32197;BME280;18697;42.770;23.400;2023-04-24T07:09:21;95325.84;;;14.48;54.41
32197;BME280;18697;42.770;23.400;2023-04-24T07:11:47;95319.38;;;14.36;55.03
32197;BME280;18697;42.770;23.400;2023-04-24T07:14:12;95319.97;;;14.83;57.90
32197;BME280;18697;42.770;23.400;2023-04-24T07:16:38;95322.97;;;14.73;56.03
32197;BME280;18697;42.770;23.400;2023-04-24T07:19:04;95322.53;;;14.92;56.23
32197;BME280;18697;42.770;23.400;2023-04-24T07:21:29;95313.41;;;14.97;54.15
32197;BME280;18697;42.770;23.400;2023-04-24T07:23:57;95314.03;;;14.69;55.57
32197;BME280;18697;42.770;23.400;2023-04-24T07:26:22;95314.03;;;14.69;55.21
32197;BME280;18697;42.770;23.400;2023-04-24T07:28:48;95313.88;;;14.90;57.00
32197;BME280;18697;42.770;23.400;2023-04-24T07:31:14;95306.81;;;15.00;54.77
32197;BME280;18697;42.770;23.400;2023-04-24T07:33:39;95313.66;;;15.53;53.60
32197;BME280;18697;42.770;23.400;2023-04-24T07:36:05;95300.50;;;15.87;54.63
32197;BME280;18697;42.770;23.400;2023-04-24T07:38:30;95300.50;;;16.48;54.01
32197;BME280;18697;42.770;23.400;2023-04-24T07:40:56;95296.38;;;16.94;52.66
32197;BME280;18697;42.770;23.400;2023-04-24T07:43:21;95299.59;;;17.20;51.70
32197;BME280;18697;42.770;23.400;2023-04-24T07:45:49;95301.97;;;17.63;51.02
32197;BME280;18697;42.770;23.400;2023-04-24T07:48:15;95300.41;;;18.09;49.33
32197;BME280;18697;42.770;23.400;2023-04-24T07:50:41;95291.53;;;18.34;48.51
32197;BME280;18697;42.770;23.400;2023-04-24T07:53:07;95289.59;;;18.54;46.95
32197;BME280;18697;42.770;23.400;2023-04-24T07:55:32;95290.03;;;18.88;46.63
32197;BME280;18697;42.770;23.400;2023-04-24T07:57:58;95281.13;;;19.08;46.18
32197;BME280;18697;42.770;23.400;2023-04-24T08:00:23;95286.75;;;19.08;46.46
32197;BME280;18697;42.770;23.400;2023-04-24T08:02:49;95286.56;;;19.00;45.12
32197;BME280;18697;42.770;23.400;2023-04-24T08:05:14;95285.06;;;18.99;45.76
32197;BME280;18697;42.770;23.400;2023-04-24T08:07:39;95284.22;;;19.04;46.35
32197;BME280;18697;42.770;23.400;2023-04-24T08:10:08;95282.28;;;18.94;44.93
32197;BME280;18697;42.770;23.400;2023-04-24T08:12:34;95283.47;;;18.80;46.32
32197;BME280;18697;42.770;23.400;2023-04-24T08:14:59;95276.97;;;19.15;45.53
32197;BME280;18697;42.770;23.400;2023-04-24T08:17:25;95275.91;;;19.36;46.00
32197;BME280;18697;42.770;23.400;2023-04-24T08:19:50;95270.34;;;19.50;42.75
32197;BME280;18697;42.770;23.400;2023-04-24T08:22:17;95265.00;;;19.71;43.45
32197;BME280;18697;42.770;23.400;2023-04-24T08:24:43;95266.25;;;19.51;42.86
32197;BME280;18697;42.770;23.400;2023-04-24T08:27:09;95255.13;;;19.40;43.79
32197;BME280;18697;42.770;23.400;2023-04-24T08:29:35;95245.72;;;19.93;43.57
32197;BME280;18697;42.770;23.400;2023-04-24T08:32:01;95256.97;;;19.93;42.49
32197;BME280;18697;42.770;23.400;2023-04-24T08:34:26;95246.00;;;19.33;43.96
32197;BME280;18697;42.770;23.400;2023-04-24T08:36:52;95245.72;;;19.75;44.51
32197;BME280;18697;42.770;23.400;2023-04-24T08:39:17;95239.34;;;20.06;44.04
32197;BME280;18697;42.770;23.400;2023-04-24T08:41:43;95241.09;;;20.41;43.64
32197;BME280;18697;42.770;23.400;2023-04-24T08:44:11;95245.69;;;20.57;41.72
32197;BME280;18697;42.770;23.400;2023-04-24T08:46:37;95239.72;;;20.48;41.66
32197;BME280;18697;42.770;23.400;2023-04-24T08:49:03;95231.81;;;20.86;43.15
32197;BME280;18697;42.770;23.400;2023-04-24T08:51:29;95240.28;;;21.12;42.22
32197;BME280;18697;42.770;23.400;2023-04-24T08:53:55;95221.31;;;21.26;40.44
32197;BME280;18697;42.770;23.400;2023-04-24T08:56:22;95232.06;;;21.27;39.61
32197;BME280;18697;42.770;23.400;2023-04-24T08:58:50;95234.00;;;21.06;40.06
32197;BME280;18697;42.770;23.400;2023-04-24T09:01:18;95223.31;;;20.46;40.47
32197;BME280;18697;42.770;23.400;2023-04-24T09:03:45;95210.31;;;20.83;41.58
32197;BME280;18697;42.770;23.400;2023-04-24T09:06:11;95215.53;;;21.05;41.99
32197;BME280;18697;42.770;23.400;2023-04-24T09:08:38;95207.38;;;21.15;40.84
32197;BME280;18697;42.770;23.400;2023-04-24T09:11:06;95203.16;;;20.82;40.58
32197;BME280;18697;42.770;23.400;2023-04-24T09:13:31;95203.81;;;20.48;41.26
32197;BME280;18697;42.770;23.400;2023-04-24T09:15:57;95198.19;;;20.29;42.41
32197;BME280;18697;42.770;23.400;2023-04-24T09:18:23;95201.66;;;20.67;42.08
32197;BME280;18697;42.770;23.400;2023-04-24T09:21:07;95200.13;;;21.06;41.34
32197;BME280;18697;42.770;23.400;2023-04-24T09:23:33;95188.28;;;21.34;41.38
32197;BME280;18697;42.770;23.400;2023-04-24T09:26:01;95195.09;;;21.39;39.91
32197;BME280;18697;42.770;23.400;2023-04-24T09:28:32;95187.09;;;21.03;40.64
32197;BME280;18697;42.770;23.400;2023-04-24T09:31:12;95182.25;;;21.51;40.65
32197;BME280;18697;42.770;23.400;2023-04-24T09:33:40;95177.13;;;21.83;41.17
32197;BME280;18697;42.770;23.400;2023-04-24T09:36:05;95166.53;;;22.18;40.44
32197;BME280;18697;42.770;23.400;2023-04-24T09:38:38;95173.13;;;22.41;39.50
32197;BME280;18697;42.770;23.400;2023-04-24T09:41:07;95164.69;;;22.49;39.19
32197;BME280;18697;42.770;23.400;2023-04-24T09:43:34;95165.34;;;22.34;37.78
32197;BME280;18697;42.770;23.400;2023-04-24T09:46:05;95159.19;;;22.43;39.00
32197;BME280;18697;42.770;23.400;2023-04-24T09:48:33;95163.31;;;22.42;38.29
32197;BME280;18697;42.770;23.400;2023-04-24T09:51:00;95163.03;;;22.53;39.60
32197;BME280;18697;42.770;23.400;2023-04-24T09:53:27;95156.56;;;22.74;41.58
32197;BME280;18697;42.770;23.400;2023-04-24T09:55:53;95154.66;;;22.97;40.14
32197;BME280;18697;42.770;23.400;2023-04-24T09:58:24;95154.50;;;23.10;39.53
32197;BME280;18697;42.770;23.400;2023-04-24T10:00:53;95152.59;;;22.98;39.05
32197;BME280;18697;42.770;23.400;2023-04-24T10:03:18;95142.06;;;23.13;38.90
32197;BME280;18697;42.770;23.400;2023-04-24T10:05:46;95137.91;;;23.14;37.45
32197;BME280;18697;42.770;23.400;2023-04-24T10:08:12;95136.13;;;23.40;39.27
32197;BME280;18697;42.770;23.400;2023-04-24T10:10:42;95131.69;;;23.59;37.54
32197;BME280;18697;42.770;23.400;2023-04-24T10:13:09;95141.47;;;23.51;35.83
32197;BME280;18697;42.770;23.400;2023-04-24T10:15:36;95122.63;;;23.69;36.98
32197;BME280;18697;42.770;23.400;2023-04-24T10:18:04;95121.53;;;23.28;36.93
32197;BME280;18697;42.770;23.400;2023-04-24T10:20:31;95114.41;;;23.42;38.37
32197;BME280;18697;42.770;23.400;2023-04-24T10:22:58;95119.97;;;23.78;36.48
32197;BME280;18697;42.770;23.400;2023-04-24T10:25:27;95113.97;;;23.97;37.14
32197;BME280;18697;42.770;23.400;2023-04-24T10:27:54;95111.53;;;24.24;36.40
32197;BME280;18697;42.770;23.400;2023-04-24T10:30:23;95111.34;;;24.45;37.01
32197;BME280;18697;42.770;23.400;2023-04-24T10:32:48;95111.66;;;24.64;37.27
32197;BME280;18697;42.770;23.400;2023-04-24T10:35:15;95112.75;;;24.84;35.71
32197;BME280;18697;42.770;23.400;2023-04-24T10:38:00;95115.59;;;24.92;33.73
32197;BME280;18697;42.770;23.400;2023-04-24T10:40:30;95113.63;;;24.31;34.14
32197;BME280;18697;42.770;23.400;2023-04-24T10:42:56;95104.13;;;24.13;32.82
32197;BME280;18697;42.770;23.400;2023-04-24T10:45:23;95098.84;;;24.25;34.91
32197;BME280;18697;42.770;23.400;2023-04-24T10:50:18;95089.03;;;24.41;34.96
32197;BME280;18697;42.770;23.400;2023-04-24T10:52:49;95091.47;;;24.07;35.01
32197;BME280;18697;42.770;23.400;2023-04-24T10:55:17;95076.53;;;24.14;36.42
32197;BME280;18697;42.770;23.400;2023-04-24T10:58:05;95076.16;;;24.10;34.63
32197;BME280;18697;42.770;23.400;2023-04-24T11:00:30;95080.88;;;24.07;34.38
32197;BME280;18697;42.770;23.400;2023-04-24T11:02:56;95081.81;;;24.17;33.28
32197;BME280;18697;42.770;23.400;2023-04-24T11:05:24;95079.94;;;24.20;34.16
32197;BME280;18697;42.770;23.400;2023-04-24T11:08:12;95074.63;;;24.24;33.98
32197;BME280;18697;42.770;23.400;2023-04-24T11:10:45;95072.56;;;24.40;33.58
32197;BME280;18697;42.770;23.400;2023-04-24T11:13:14;95075.16;;;24.53;33.76
32197;BME280;18697;42.770;23.400;2023-04-24T11:15:41;95071.91;;;24.72;33.15
32197;BME280;18697;42.770;23.400;2023-04-24T11:18:13;95069.63;;;24.78;31.44
32197;BME280;18697;42.770;23.400;2023-04-24T11:20:42;95062.72;;;24.48;31.60
32197;BME280;18697;42.770;23.400;2023-04-24T11:23:08;95061.03;;;24.30;33.43
32197;BME280;18697;42.770;23.400;2023-04-24T11:25:35;95057.44;;;23.91;32.86
32197;BME280;18697;42.770;23.400;2023-04-24T11:28:05;95060.84;;;23.75;33.09
32197;BME280;18697;42.770;23.400;2023-04-24T11:30:32;95059.50;;;23.99;32.78
32197;BME280;18697;42.770;23.400;2023-04-24T11:33:05;95055.72;;;23.88;33.15
32197;BME280;18697;42.770;23.400;2023-04-24T11:35:35;95061.78;;;23.62;33.99
32197;BME280;18697;42.770;23.400;2023-04-24T11:38:02;95065.59;;;22.70;35.73
32197;BME280;18697;42.770;23.400;2023-04-24T11:40:28;95079.09;;;21.37;41.04
32197;BME280;18697;42.770;23.400;2023-04-24T11:42:54;95064.16;;;19.57;47.07
32197;BME280;18697;42.770;23.400;2023-04-24T11:45:25;95063.19;;;19.54;42.86
32197;BME280;18697;42.770;23.400;2023-04-24T11:47:51;95065.50;;;19.69;44.16
32197;BME280;18697;42.770;23.400;2023-04-24T11:50:18;95071.63;;;19.99;45.53
32197;BME280;18697;42.770;23.400;2023-04-24T11:52:46;95071.28;;;19.90;44.18
32197;BME280;18697;42.770;23.400;2023-04-24T11:57:43;95066.84;;;19.94;44.42
32197;BME280;18697;42.770;23.400;2023-04-24T12:00:15;95061.22;;;20.21;44.87
32197;BME280;18697;42.770;23.400;2023-04-24T12:02:41;95063.44;;;20.41;42.98
32197;BME280;18697;42.770;23.400;2023-04-24T12:05:07;95053.75;;;20.97;43.16
32197;BME280;18697;42.770;23.400;2023-04-24T12:07:40;95049.84;;;21.00;42.39
32197;BME280;18697;42.770;23.400;2023-04-24T12:10:08;95045.03;;;21.21;44.51
32197;BME280;18697;42.770;23.400;2023-04-24T12:12:34;95035.69;;;21.26;43.37
32197;BME280;18697;42.770;23.400;2023-04-24T12:15:00;95031.34;;;21.46;43.81
32197;BME280;18697;42.770;23.400;2023-04-24T12:17:30;95028.38;;;21.52;44.39
32197;BME280;18697;42.770;23.400;2023-04-24T12:20:01;95028.72;;;21.27;44.38
32197;BME280;18697;42.770;23.400;2023-04-24T12:22:27;95027.63;;;21.30;43.50
32197;BME280;18697;42.770;23.400;2023-04-24T12:25:01;95027.50;;;20.89;43.50
32197;BME280;18697;42.770;23.400;2023-04-24T12:27:31;95015.69;;;20.90;43.67
32197;BME280;18697;42.770;23.400;2023-04-24T12:29:59;95011.94;;;21.09;44.13
32197;BME280;18697;42.770;23.400;2023-04-24T12:32:25;95001.19;;;21.07;42.77
32197;BME280;18697;42.770;23.400;2023-04-24T12:34:51;95006.06;;;21.07;42.01
32197;BME280;18697;42.770;23.400;2023-04-24T12:37:17;94993.00;;;21.17;41.71
32197;BME280;18697;42.770;23.400;2023-04-24T12:42:26;94998.91;;;21.06;40.25
32197;BME280;18697;42.770;23.400;2023-04-24T12:44:56;94986.72;;;21.11;39.05
32197;BME280;18697;42.770;23.400;2023-04-24T12:47:24;94970.47;;;21.04;40.48
32197;BME280;18697;42.770;23.400;2023-04-24T12:49:50;94970.41;;;21.17;41.77
32197;BME280;18697;42.770;23.400;2023-04-24T12:52:21;94957.50;;;21.21;40.24
32197;BME280;18697;42.770;23.400;2023-04-24T12:54:46;94947.78;;;21.30;40.49